createdAt,value
2017-10-19T00:00:32.685Z,12.1
2017-10-19T00:01:35.114Z,12.1
2017-10-19T00:02:37.541Z,12.1
2017-10-19T00:03:39.962Z,12.1
2017-10-19T00:04:42.404Z,12.1
2017-10-19T00:05:44.834Z,12.1
2017-10-19T00:06:47.629Z,12.1
2017-10-19T00:07:50.053Z,12.1
2017-10-19T00:08:52.489Z,12.2
2017-10-19T00:09:54.910Z,12.2
2017-10-19T00:10:57.353Z,12.2
2017-10-19T00:11:59.775Z,12.2
2017-10-19T00:13:02.204Z,12.2
2017-10-19T00:14:04.996Z,12.2
2017-10-19T00:15:07.433Z,12.2
2017-10-19T00:16:09.862Z,12.2
2017-10-19T00:17:12.651Z,12.2
2017-10-19T00:18:15.078Z,12.2
2017-10-19T00:19:17.505Z,12.2
2017-10-19T00:20:19.925Z,12.2
2017-10-19T00:21:22.726Z,12.2
2017-10-19T00:22:25.159Z,12.2
2017-10-19T00:23:27.578Z,12.2
2017-10-19T00:24:30.013Z,12.3
2017-10-19T00:25:32.445Z,12.3
2017-10-19T00:26:34.872Z,12.3
2017-10-19T00:27:37.661Z,12.3
2017-10-19T00:28:40.082Z,12.3
2017-10-19T00:29:42.514Z,12.3
2017-10-19T00:30:44.962Z,12.3
2017-10-19T00:31:47.381Z,12.3
2017-10-19T00:32:49.810Z,12.3
2017-10-19T00:33:52.250Z,12.3
2017-10-19T00:34:54.676Z,12.3
2017-10-19T00:35:57.122Z,12.3
2017-10-19T00:36:59.543Z,12.2
2017-10-19T00:38:01.963Z,12.2
2017-10-19T00:39:04.394Z,12.2
2017-10-19T00:40:06.820Z,12.2
2017-10-19T00:41:09.247Z,12.2
2017-10-19T00:42:11.679Z,12.2
2017-10-19T00:43:14.105Z,12.2
2017-10-19T00:44:16.915Z,12.2
2017-10-19T00:45:19.357Z,12.2
2017-10-19T00:46:21.787Z,12.2
2017-10-19T00:47:24.219Z,12.2
2017-10-19T00:48:26.646Z,12.2
2017-10-19T00:49:29.438Z,12.2
2017-10-19T00:50:31.870Z,12.2
2017-10-19T00:51:34.309Z,12.2
2017-10-19T00:52:36.748Z,12.2
2017-10-19T00:53:39.215Z,12.2
2017-10-19T00:54:41.606Z,12.2
2017-10-19T00:55:44.039Z,12.2
2017-10-19T00:56:46.478Z,12.2
2017-10-19T00:57:48.909Z,12.2
2017-10-19T00:58:51.330Z,12.3
2017-10-19T00:59:53.766Z,12.3
2017-10-19T01:00:56.190Z,12.2
2017-10-19T01:01:58.634Z,12.2
2017-10-19T01:03:01.057Z,12.3
2017-10-19T01:04:03.848Z,12.3
2017-10-19T01:05:06.279Z,12.3
2017-10-19T01:06:08.723Z,12.3
2017-10-19T01:07:11.508Z,12.3
2017-10-19T01:08:13.939Z,12.3
2017-10-19T01:09:16.352Z,12.3
2017-10-19T01:10:18.793Z,12.3
2017-10-19T01:11:21.232Z,12.3
2017-10-19T01:12:23.675Z,12.3
2017-10-19T01:13:26.105Z,12.3
2017-10-19T01:14:28.889Z,12.3
2017-10-19T01:15:31.319Z,12.3
2017-10-19T01:16:34.142Z,12.3
2017-10-19T01:17:36.578Z,12.3
2017-10-19T01:18:38.997Z,12.3
2017-10-19T01:19:41.798Z,12.3
2017-10-19T01:20:44.235Z,12.3
2017-10-19T01:21:46.673Z,12.3
2017-10-19T01:22:49.108Z,12.3
2017-10-19T01:23:51.547Z,12.3
2017-10-19T01:24:53.973Z,12.3
2017-10-19T01:25:56.408Z,12.3
2017-10-19T01:26:58.838Z,12.3
2017-10-19T01:28:01.265Z,12.3
2017-10-19T01:29:03.694Z,12.3
2017-10-19T01:30:06.131Z,12.3
2017-10-19T01:31:08.571Z,12.3
2017-10-19T01:32:11.001Z,12.3
2017-10-19T01:33:13.421Z,12.3
2017-10-19T01:34:15.849Z,12.3
2017-10-19T01:35:18.286Z,12.3
2017-10-19T01:36:20.716Z,12.3
2017-10-19T01:37:23.147Z,12.3
2017-10-19T01:38:25.580Z,12.3
2017-10-19T01:39:28.010Z,12.3
2017-10-19T01:40:30.807Z,12.3
2017-10-19T01:41:33.240Z,12.3
2017-10-19T01:42:35.674Z,12.3
2017-10-19T01:43:38.092Z,12.4
2017-10-19T01:44:40.529Z,12.3
2017-10-19T01:45:42.954Z,12.3
2017-10-19T01:46:45.381Z,12.4
2017-10-19T01:47:48.201Z,12.4
2017-10-19T01:48:50.634Z,12.4
2017-10-19T01:49:53.058Z,12.4
2017-10-19T01:50:55.490Z,12.4
2017-10-19T01:51:57.933Z,12.4
2017-10-19T01:53:00.363Z,12.4
2017-10-19T01:54:02.789Z,12.4
2017-10-19T01:55:05.216Z,12.4
2017-10-19T01:56:07.999Z,12.4
2017-10-19T01:57:10.429Z,12.4
2017-10-19T01:58:12.906Z,12.4
2017-10-19T01:59:15.287Z,12.4
2017-10-19T02:00:18.078Z,12.4
2017-10-19T02:01:20.520Z,12.4
2017-10-19T02:02:22.952Z,12.4
2017-10-19T02:03:25.393Z,12.4
2017-10-19T02:04:27.832Z,12.4
2017-10-19T02:05:30.259Z,12.4
2017-10-19T02:06:32.688Z,12.4
2017-10-19T02:07:35.125Z,12.4
2017-10-19T02:08:37.547Z,12.4
2017-10-19T02:09:39.984Z,12.4
2017-10-19T02:10:42.414Z,12.4
2017-10-19T02:11:44.837Z,12.4
2017-10-19T02:12:47.271Z,12.5
2017-10-19T02:13:49.702Z,12.5
2017-10-19T02:14:52.134Z,12.5
2017-10-19T02:15:54.935Z,12.5
2017-10-19T02:16:57.375Z,12.5
2017-10-19T02:17:59.800Z,12.5
2017-10-19T02:19:02.235Z,12.5
2017-10-19T02:20:04.670Z,12.5
2017-10-19T02:21:07.101Z,12.5
2017-10-19T02:22:09.889Z,12.5
2017-10-19T02:23:12.329Z,12.5
2017-10-19T02:24:14.746Z,12.5
2017-10-19T02:25:17.190Z,12.5
2017-10-19T02:26:19.617Z,12.5
2017-10-19T02:27:22.048Z,12.5
2017-10-19T02:28:24.837Z,12.5
2017-10-19T02:29:27.620Z,12.5
2017-10-19T02:30:30.049Z,12.5
2017-10-19T02:31:32.484Z,12.5
2017-10-19T02:32:34.915Z,12.5
2017-10-19T02:33:37.355Z,12.5
2017-10-19T02:34:39.793Z,12.4
2017-10-19T02:35:42.229Z,12.4
2017-10-19T02:36:44.659Z,12.5
2017-10-19T02:37:47.089Z,12.5
2017-10-19T02:38:49.516Z,12.5
2017-10-19T02:39:51.951Z,12.5
2017-10-19T02:40:54.373Z,12.5
2017-10-19T02:41:56.818Z,12.5
2017-10-19T02:42:59.234Z,12.5
2017-10-19T02:44:01.677Z,12.5
2017-10-19T02:45:04.110Z,12.5
2017-10-19T02:46:06.541Z,12.5
2017-10-19T02:47:08.979Z,12.4
2017-10-19T02:48:11.413Z,12.5
2017-10-19T02:49:13.837Z,12.5
2017-10-19T02:50:16.276Z,12.5
2017-10-19T02:51:18.711Z,12.5
2017-10-19T02:52:21.129Z,12.5
2017-10-19T02:53:23.554Z,12.5
2017-10-19T02:54:25.991Z,12.5
2017-10-19T02:55:28.768Z,12.5
2017-10-19T02:56:31.209Z,12.5
2017-10-19T02:57:33.634Z,12.5
2017-10-19T02:58:36.059Z,12.5
2017-10-19T02:59:38.503Z,12.6
2017-10-19T03:00:40.926Z,12.6
2017-10-19T03:01:43.359Z,12.6
2017-10-19T03:02:45.797Z,12.5
2017-10-19T03:03:48.618Z,12.6
2017-10-19T03:04:51.045Z,12.6
2017-10-19T03:05:53.476Z,12.6
2017-10-19T03:06:55.907Z,12.6
2017-10-19T03:07:58.325Z,12.6
2017-10-19T03:09:00.774Z,12.5
2017-10-19T03:10:03.194Z,12.5
2017-10-19T03:11:05.632Z,12.6
2017-10-19T03:12:08.067Z,12.5
2017-10-19T03:13:10.500Z,12.5
2017-10-19T03:14:12.931Z,12.5
2017-10-19T03:15:15.723Z,12.5
2017-10-19T03:16:18.151Z,12.5
2017-10-19T03:17:20.587Z,12.5
2017-10-19T03:18:23.005Z,12.5
2017-10-19T03:19:25.443Z,12.5
2017-10-19T03:20:27.864Z,12.5
2017-10-19T03:21:30.294Z,12.5
2017-10-19T03:22:32.725Z,12.5
2017-10-19T03:23:35.514Z,12.5
2017-10-19T03:24:37.952Z,12.5
2017-10-19T03:25:40.389Z,12.5
2017-10-19T03:26:42.814Z,12.5
2017-10-19T03:27:45.241Z,12.5
2017-10-19T03:28:47.675Z,12.5
2017-10-19T03:29:50.108Z,12.5
2017-10-19T03:30:52.546Z,12.4
2017-10-19T03:31:54.967Z,12.5
2017-10-19T03:32:57.402Z,12.5
2017-10-19T03:33:59.852Z,12.5
2017-10-19T03:35:02.278Z,12.5
2017-10-19T03:36:04.710Z,12.5
2017-10-19T03:37:07.136Z,12.5
2017-10-19T03:38:09.567Z,12.5
2017-10-19T03:39:12.005Z,12.5
2017-10-19T03:40:14.822Z,12.6
2017-10-19T03:41:17.597Z,12.6
2017-10-19T03:42:20.389Z,12.6
2017-10-19T03:43:22.827Z,12.6
2017-10-19T03:44:25.253Z,12.5
2017-10-19T03:45:27.689Z,12.5
2017-10-19T03:46:30.116Z,12.5
2017-10-19T03:47:32.903Z,12.5
2017-10-19T03:48:35.340Z,12.5
2017-10-19T03:49:37.771Z,12.5
2017-10-19T03:50:40.204Z,12.5
2017-10-19T03:51:42.637Z,12.5
2017-10-19T03:52:45.066Z,12.5
2017-10-19T03:53:47.499Z,12.5
2017-10-19T03:54:49.929Z,12.5
2017-10-19T03:55:52.360Z,12.5
2017-10-19T03:56:54.781Z,12.5
2017-10-19T03:57:57.223Z,12.5
2017-10-19T03:58:59.647Z,12.5
2017-10-19T04:00:02.076Z,12.5
2017-10-19T04:01:04.507Z,12.5
2017-10-19T04:02:06.946Z,12.5
2017-10-19T04:03:09.724Z,12.5
2017-10-19T04:04:12.159Z,12.5
2017-10-19T04:05:14.587Z,12.5
2017-10-19T04:06:17.024Z,12.6
2017-10-19T04:07:19.469Z,12.6
2017-10-19T04:08:21.900Z,12.6
2017-10-19T04:09:24.336Z,12.5
2017-10-19T04:10:26.774Z,12.5
2017-10-19T04:11:29.211Z,12.5
2017-10-19T04:12:31.644Z,12.5
2017-10-19T04:13:34.077Z,12.5
2017-10-19T04:14:36.492Z,12.5
2017-10-19T04:15:38.932Z,12.4
2017-10-19T04:16:41.715Z,12.4
2017-10-19T04:17:44.150Z,12.4
2017-10-19T04:18:46.956Z,12.4
2017-10-19T04:19:49.399Z,12.4
2017-10-19T04:20:51.832Z,12.4
2017-10-19T04:21:54.247Z,12.4
2017-10-19T04:22:56.684Z,12.5
2017-10-19T04:23:59.116Z,12.5
2017-10-19T04:25:01.543Z,12.5
2017-10-19T04:26:03.986Z,12.5
2017-10-19T04:27:06.412Z,12.5
2017-10-19T04:28:08.839Z,12.5
2017-10-19T04:29:11.283Z,12.5
2017-10-19T04:30:13.711Z,12.5
2017-10-19T04:31:16.144Z,12.5
2017-10-19T04:32:18.575Z,12.5
2017-10-19T04:33:21.348Z,12.5
2017-10-19T04:34:23.788Z,12.5
2017-10-19T04:35:26.225Z,12.4
2017-10-19T04:36:28.656Z,12.4
2017-10-19T04:37:31.093Z,12.4
2017-10-19T04:38:33.523Z,12.4
2017-10-19T04:39:35.954Z,12.4
2017-10-19T04:40:38.406Z,12.4
2017-10-19T04:41:40.834Z,12.4
2017-10-19T04:42:43.257Z,12.4
2017-10-19T04:43:45.685Z,12.4
2017-10-19T04:44:48.127Z,12.4
2017-10-19T04:45:50.544Z,12.4
2017-10-19T04:46:52.981Z,12.4
2017-10-19T04:47:55.424Z,12.4
2017-10-19T04:48:57.857Z,12.4
2017-10-19T04:50:00.296Z,12.3
2017-10-19T04:51:02.727Z,12.3
2017-10-19T04:52:05.160Z,12.3
2017-10-19T04:53:07.602Z,12.3
2017-10-19T04:54:10.022Z,12.2
2017-10-19T04:55:12.443Z,12.2
2017-10-19T04:56:14.876Z,12.2
2017-10-19T04:57:17.306Z,12.2
2017-10-19T04:58:19.739Z,12.2
2017-10-19T04:59:22.523Z,12.1
2017-10-19T05:00:24.957Z,12.1
2017-10-19T05:01:27.396Z,12.1
2017-10-19T05:02:29.828Z,12.1
2017-10-19T05:03:32.264Z,12.1
2017-10-19T05:04:34.688Z,12.1
2017-10-19T05:05:37.121Z,12.1
2017-10-19T05:06:39.559Z,12.1
2017-10-19T05:07:41.986Z,12.1
2017-10-19T05:08:44.418Z,12.1
2017-10-19T05:09:46.858Z,12.1
2017-10-19T05:10:49.284Z,12.1
2017-10-19T05:11:51.733Z,12.1
2017-10-19T05:12:54.162Z,12.1
2017-10-19T05:13:56.601Z,12.1
2017-10-19T05:14:59.404Z,12.1
2017-10-19T05:16:01.838Z,12.1
2017-10-19T05:17:04.271Z,12.1
2017-10-19T05:18:06.711Z,12.1
2017-10-19T05:19:09.495Z,12.1
2017-10-19T05:20:11.931Z,12.1
2017-10-19T05:21:14.346Z,12.1
2017-10-19T05:22:16.781Z,12.1
2017-10-19T05:23:19.217Z,12.1
2017-10-19T05:24:22.000Z,12.1
2017-10-19T05:25:24.433Z,12.1
2017-10-19T05:26:27.308Z,12
2017-10-19T05:27:31.776Z,12
2017-10-19T05:28:35.022Z,12
2017-10-19T05:29:38.058Z,12
2017-10-19T05:30:41.334Z,12
2017-10-19T05:31:46.392Z,12
2017-10-19T05:32:51.478Z,12
2017-10-19T05:33:56.929Z,12
2017-10-19T05:34:59.362Z,12
2017-10-19T05:36:01.789Z,12
2017-10-19T05:37:04.217Z,11.9
2017-10-19T05:38:06.632Z,11.9
2017-10-19T05:39:09.072Z,11.9
2017-10-19T05:40:11.518Z,11.9
2017-10-19T05:41:13.939Z,11.9
2017-10-19T05:42:16.368Z,11.9
2017-10-19T05:43:18.793Z,11.9
2017-10-19T05:44:21.589Z,11.9
2017-10-19T05:45:24.370Z,11.9
2017-10-19T05:46:26.806Z,11.9
2017-10-19T05:47:29.238Z,11.9
2017-10-19T05:48:31.675Z,11.9
2017-10-19T05:49:34.462Z,11.9
2017-10-19T05:50:37.254Z,11.9
2017-10-19T05:51:39.678Z,12
2017-10-19T05:52:42.126Z,12
2017-10-19T05:53:44.543Z,12
2017-10-19T05:54:46.967Z,12
2017-10-19T05:55:49.397Z,12
2017-10-19T05:56:51.829Z,11.9
2017-10-19T05:57:54.263Z,11.9
2017-10-19T05:58:56.687Z,11.9
2017-10-19T05:59:59.114Z,11.9
2017-10-19T06:01:01.539Z,11.9
2017-10-19T06:02:03.977Z,11.9
2017-10-19T06:03:06.413Z,11.9
2017-10-19T06:04:08.829Z,11.9
2017-10-19T06:05:11.266Z,11.9
2017-10-19T06:06:13.704Z,11.9
2017-10-19T06:07:16.146Z,11.9
2017-10-19T06:08:18.575Z,11.9
2017-10-19T06:09:21.007Z,11.9
2017-10-19T06:10:23.430Z,11.9
2017-10-19T06:11:25.870Z,11.9
2017-10-19T06:12:28.746Z,11.9
2017-10-19T06:13:31.557Z,11.9
2017-10-19T06:14:34.584Z,11.9
2017-10-19T06:15:39.241Z,11.9
2017-10-19T06:16:42.445Z,11.9
2017-10-19T06:17:45.987Z,11.9
2017-10-19T06:18:49.279Z,11.9
2017-10-19T06:19:52.653Z,11.9
2017-10-19T06:20:55.963Z,11.9
2017-10-19T06:21:59.061Z,11.9
2017-10-19T06:23:02.569Z,11.9
2017-10-19T06:24:05.979Z,11.9
2017-10-19T06:25:09.376Z,11.9
2017-10-19T06:26:12.656Z,11.9
2017-10-19T06:27:15.826Z,11.9
2017-10-19T06:28:19.138Z,11.9
2017-10-19T06:29:22.304Z,11.9
2017-10-19T06:30:26.156Z,11.9
2017-10-19T06:31:29.138Z,11.9
2017-10-19T06:32:31.966Z,11.9
2017-10-19T06:33:35.351Z,11.8
2017-10-19T06:34:38.937Z,11.9
2017-10-19T06:35:41.973Z,11.8
2017-10-19T06:36:44.854Z,11.8
2017-10-19T06:37:48.300Z,11.8
2017-10-19T06:38:51.595Z,11.8
2017-10-19T06:39:55.423Z,11.8
2017-10-19T06:40:58.429Z,11.8
2017-10-19T06:42:01.931Z,11.9
2017-10-19T06:43:05.449Z,11.8
2017-10-19T06:44:08.029Z,11.8
2017-10-19T06:45:10.454Z,11.9
2017-10-19T06:46:12.887Z,11.9
2017-10-19T06:47:15.319Z,11.9
2017-10-19T06:48:17.752Z,11.9
2017-10-19T06:49:20.186Z,11.9
2017-10-19T06:50:22.618Z,11.9
2017-10-19T06:51:25.044Z,12
2017-10-19T06:52:27.484Z,11.9
2017-10-19T06:53:29.911Z,11.9
2017-10-19T06:54:32.344Z,11.9
2017-10-19T06:55:34.784Z,11.9
2017-10-19T06:56:37.210Z,12
2017-10-19T06:57:39.649Z,12
2017-10-19T06:58:43.558Z,12
2017-10-19T06:59:48.112Z,12
2017-10-19T07:00:52.075Z,12.1
2017-10-19T07:01:57.644Z,12.1
2017-10-19T07:03:01.783Z,12.2
2017-10-19T07:04:04.207Z,12.2
2017-10-19T07:05:06.636Z,12.3
2017-10-19T07:06:09.067Z,12.3
2017-10-19T07:07:11.493Z,12.3
2017-10-19T07:08:14.643Z,12.4
2017-10-19T07:09:17.068Z,12.4
2017-10-19T07:10:19.505Z,12.4
2017-10-19T07:11:22.302Z,12.4
2017-10-19T07:12:24.738Z,12.5
2017-10-19T07:13:27.528Z,12.5
2017-10-19T07:14:29.967Z,12.6
2017-10-19T07:15:32.401Z,12.6
2017-10-19T07:16:35.174Z,12.7
2017-10-19T07:17:37.607Z,12.8
2017-10-19T07:18:40.034Z,12.8
2017-10-19T07:19:42.841Z,12.8
2017-10-19T07:20:45.274Z,12.8
2017-10-19T07:21:48.065Z,12.8
2017-10-19T07:22:50.489Z,12.8
2017-10-19T07:23:52.931Z,12.8
2017-10-19T07:24:55.357Z,12.8
2017-10-19T07:25:57.789Z,12.9
2017-10-19T07:27:00.220Z,12.8
2017-10-19T07:28:02.644Z,12.9
2017-10-19T07:29:05.077Z,12.9
2017-10-19T07:30:07.515Z,12.9
2017-10-19T07:31:09.953Z,13
2017-10-19T07:32:12.384Z,13.1
2017-10-19T07:33:14.822Z,13.1
2017-10-19T07:34:17.250Z,13.2
2017-10-19T07:35:19.667Z,13.2
2017-10-19T07:36:22.121Z,13.2
2017-10-19T07:37:24.542Z,13.3
2017-10-19T07:38:26.980Z,13.3
2017-10-19T07:39:29.417Z,13.4
2017-10-19T07:40:31.851Z,13.4
2017-10-19T07:41:34.285Z,13.5
2017-10-19T07:42:36.722Z,13.5
2017-10-19T07:43:39.147Z,13.6
2017-10-19T07:44:41.582Z,13.7
2017-10-19T07:45:44.020Z,13.8
2017-10-19T07:46:46.447Z,13.9
2017-10-19T07:47:48.881Z,13.9
2017-10-19T07:48:51.321Z,13.9
2017-10-19T07:49:54.093Z,14.1
2017-10-19T07:50:56.537Z,14.1
2017-10-19T07:51:58.976Z,14.3
2017-10-19T07:53:01.410Z,14.4
2017-10-19T07:54:03.852Z,14.4
2017-10-19T07:55:06.288Z,14.6
2017-10-19T07:56:08.729Z,14.6
2017-10-19T07:57:11.523Z,14.6
2017-10-19T07:58:14.322Z,14.5
2017-10-19T07:59:16.751Z,14.4
2017-10-19T08:00:19.190Z,14.4
2017-10-19T08:01:21.622Z,14.5
2017-10-19T08:02:24.053Z,14.4
2017-10-19T08:03:26.550Z,14.5
2017-10-19T08:04:28.978Z,14.5
2017-10-19T08:05:31.422Z,14.5
2017-10-19T08:06:33.852Z,14.5
2017-10-19T08:07:36.287Z,14.4
2017-10-19T08:08:38.732Z,14.3
2017-10-19T08:09:41.160Z,14.2
2017-10-19T08:10:43.591Z,14.1
2017-10-19T08:11:46.025Z,14.2
2017-10-19T08:12:48.821Z,14.1
2017-10-19T08:13:51.253Z,14
2017-10-19T08:14:53.673Z,14
2017-10-19T08:15:56.464Z,14
2017-10-19T08:16:58.904Z,14
2017-10-19T08:18:01.340Z,14
2017-10-19T08:19:03.781Z,14.1
2017-10-19T08:20:06.217Z,14.3
2017-10-19T08:21:08.657Z,14.3
2017-10-19T08:22:11.108Z,14.3
2017-10-19T08:23:13.528Z,14.3
2017-10-19T08:24:15.957Z,14.3
2017-10-19T08:25:18.392Z,14.4
2017-10-19T08:26:20.823Z,14.6
2017-10-19T08:27:23.249Z,14.6
2017-10-19T08:28:25.684Z,14.6
2017-10-19T08:29:28.487Z,14.7
2017-10-19T08:30:30.924Z,14.8
2017-10-19T08:31:33.355Z,14.8
2017-10-19T08:32:35.786Z,14.9
2017-10-19T08:33:38.227Z,15
2017-10-19T08:34:40.673Z,15.1
2017-10-19T08:35:43.101Z,15.1
2017-10-19T08:36:45.548Z,15.2
2017-10-19T08:37:47.985Z,15.4
2017-10-19T08:38:50.423Z,15.4
2017-10-19T08:39:52.857Z,15.4
2017-10-19T08:40:55.295Z,15.5
2017-10-19T08:41:57.720Z,15.5
2017-10-19T08:43:00.164Z,15.6
2017-10-19T08:44:02.603Z,15.5
2017-10-19T08:45:05.047Z,15.7
2017-10-19T08:46:07.483Z,15.7
2017-10-19T08:47:09.921Z,15.8
2017-10-19T08:48:12.368Z,15.9
2017-10-19T08:49:14.792Z,15.7
2017-10-19T08:50:17.239Z,15.7
2017-10-19T08:51:19.667Z,15.9
2017-10-19T08:52:22.459Z,16.1
2017-10-19T08:53:24.906Z,16.3
2017-10-19T08:54:27.691Z,16.4
2017-10-19T08:55:30.131Z,16.3
2017-10-19T08:56:32.580Z,16.3
2017-10-19T08:57:35.010Z,16.4
2017-10-19T08:58:37.459Z,16.5
2017-10-19T08:59:40.251Z,16.5
2017-10-19T09:00:42.682Z,16.5
2017-10-19T09:01:45.128Z,16.6
2017-10-19T09:02:47.566Z,16.9
2017-10-19T09:03:50.014Z,16.8
2017-10-19T09:04:52.461Z,16.8
2017-10-19T09:05:54.895Z,16.8
2017-10-19T09:06:57.340Z,16.9
2017-10-19T09:08:00.160Z,17
2017-10-19T09:09:02.617Z,17.2
2017-10-19T09:10:05.059Z,17.3
2017-10-19T09:11:07.492Z,17.4
2017-10-19T09:12:09.943Z,17.5
2017-10-19T09:13:12.373Z,17.6
2017-10-19T09:14:14.821Z,17.6
2017-10-19T09:15:17.275Z,17.6
2017-10-19T09:16:19.712Z,17.4
2017-10-19T09:17:22.305Z,17.4
2017-10-19T09:18:24.745Z,17.3
2017-10-19T09:19:27.191Z,17.3
2017-10-19T09:20:29.629Z,17.5
2017-10-19T09:21:32.068Z,17.4
2017-10-19T09:22:34.500Z,17.2
2017-10-19T09:23:36.946Z,17.2
2017-10-19T09:24:39.397Z,17.5
2017-10-19T09:25:41.841Z,17.3
2017-10-19T09:26:44.282Z,17.2
2017-10-19T09:27:46.725Z,17.4
2017-10-19T09:28:49.166Z,17.4
2017-10-19T09:29:51.614Z,17.5
2017-10-19T09:30:54.061Z,17.3
2017-10-19T09:31:56.850Z,17
2017-10-19T09:32:59.295Z,17.1
2017-10-19T09:34:01.739Z,16.9
2017-10-19T09:35:04.178Z,16.8
2017-10-19T09:36:06.618Z,17
2017-10-19T09:37:09.066Z,16.8
2017-10-19T09:38:11.504Z,16.8
2017-10-19T09:39:14.313Z,16.9
2017-10-19T09:40:16.755Z,16.8
2017-10-19T09:41:19.192Z,16.9
2017-10-19T09:42:21.629Z,16.9
2017-10-19T09:43:24.077Z,16.9
2017-10-19T09:44:26.525Z,16.9
2017-10-19T09:45:28.963Z,16.8
2017-10-19T09:46:31.405Z,16.9
2017-10-19T09:47:33.843Z,16.9
2017-10-19T09:48:36.268Z,16.8
2017-10-19T09:49:38.726Z,16.8
2017-10-19T09:50:41.157Z,16.8
2017-10-19T09:51:43.603Z,16.8
2017-10-19T09:52:46.056Z,16.8
2017-10-19T09:53:48.843Z,16.8
2017-10-19T09:54:51.284Z,16.7
2017-10-19T09:55:53.728Z,16.7
2017-10-19T09:56:56.157Z,16.6
2017-10-19T09:57:58.603Z,16.5
2017-10-19T09:59:01.394Z,16.5
2017-10-19T10:00:03.827Z,16.6
2017-10-19T10:01:06.271Z,16.7
2017-10-19T10:02:08.711Z,16.7
2017-10-19T10:03:11.135Z,16.7
2017-10-19T10:04:13.587Z,16.6
2017-10-19T10:05:16.010Z,16.7
2017-10-19T10:06:18.449Z,16.6
2017-10-19T10:07:20.887Z,16.7
2017-10-19T10:08:23.332Z,16.8
2017-10-19T10:09:25.775Z,16.9
2017-10-19T10:10:28.222Z,17.1
2017-10-19T10:11:30.656Z,17.3
2017-10-19T10:12:33.089Z,17.4
2017-10-19T10:13:35.879Z,17.5
2017-10-19T10:14:38.691Z,17.7
2017-10-19T10:15:41.490Z,17.9
2017-10-19T10:16:44.298Z,18
2017-10-19T10:17:46.733Z,18
2017-10-19T10:18:49.177Z,18.2
2017-10-19T10:19:51.623Z,18.2
2017-10-19T10:20:54.069Z,18.6
2017-10-19T10:21:56.499Z,18.8
2017-10-19T10:22:58.940Z,18.8
2017-10-19T10:24:01.746Z,18.8
2017-10-19T10:25:04.556Z,18.4
2017-10-19T10:26:07.000Z,18.7
2017-10-19T10:27:09.432Z,18.8
2017-10-19T10:28:11.880Z,18.9
2017-10-19T10:29:14.693Z,18.9
2017-10-19T10:30:17.136Z,18.9
2017-10-19T10:31:19.573Z,19
2017-10-19T10:32:22.012Z,18.8
2017-10-19T10:33:24.811Z,18.8
2017-10-19T10:34:27.259Z,18.8
2017-10-19T10:35:29.696Z,19
2017-10-19T10:36:32.123Z,19.1
2017-10-19T10:37:34.571Z,19.2
2017-10-19T10:38:37.028Z,19.5
2017-10-19T10:39:39.471Z,19.4
2017-10-19T10:40:41.923Z,19.3
2017-10-19T10:41:44.733Z,19.5
2017-10-19T10:42:47.172Z,19.3
2017-10-19T10:43:49.984Z,19.5
2017-10-19T10:44:52.424Z,19.7
2017-10-19T10:45:54.875Z,19.6
2017-10-19T10:46:57.680Z,19.8
2017-10-19T10:48:00.104Z,19.7
2017-10-19T10:49:02.570Z,19.8
2017-10-19T10:50:05.004Z,19.8
2017-10-19T10:51:07.448Z,20
2017-10-19T10:52:09.892Z,20.2
2017-10-19T10:53:12.333Z,20.2
2017-10-19T10:54:14.774Z,20.3
2017-10-19T10:55:17.228Z,20.5
2017-10-19T10:56:19.670Z,20.2
2017-10-19T10:57:22.121Z,19.9
2017-10-19T10:58:24.565Z,19.7
2017-10-19T10:59:27.359Z,19.7
2017-10-19T11:00:29.810Z,19.9
2017-10-19T11:01:32.253Z,20
2017-10-19T11:02:34.687Z,19.7
2017-10-19T11:03:37.139Z,19.4
2017-10-19T11:04:39.583Z,19.6
2017-10-19T11:05:42.029Z,19.6
2017-10-19T11:06:44.480Z,19.4
2017-10-19T11:07:46.931Z,19.3
2017-10-19T11:08:49.372Z,19.2
2017-10-19T11:09:51.832Z,19.2
2017-10-19T11:10:54.273Z,19
2017-10-19T11:11:56.705Z,19.2
2017-10-19T11:12:59.161Z,19.2
2017-10-19T11:14:01.603Z,18.9
2017-10-19T11:15:04.061Z,18.7
2017-10-19T11:16:06.858Z,18.9
2017-10-19T11:17:09.297Z,18.9
2017-10-19T11:18:11.747Z,19
2017-10-19T11:19:14.185Z,19.2
2017-10-19T11:20:16.620Z,19.2
2017-10-19T11:21:19.069Z,19.3
2017-10-19T11:22:21.510Z,19.4
2017-10-19T11:23:23.955Z,19.6
2017-10-19T11:24:26.400Z,19.6
2017-10-19T11:25:28.848Z,19.4
2017-10-19T11:26:31.284Z,19.5
2017-10-19T11:27:33.731Z,19.5
2017-10-19T11:28:36.170Z,19.5
2017-10-19T11:29:38.614Z,19.7
2017-10-19T11:30:41.053Z,19.8
2017-10-19T11:31:43.504Z,19.9
2017-10-19T11:32:45.938Z,19.9
2017-10-19T11:33:48.395Z,19.8
2017-10-19T11:34:50.834Z,19.5
2017-10-19T11:35:53.270Z,19.7
2017-10-19T11:36:55.717Z,19.6
2017-10-19T11:37:58.166Z,19.5
2017-10-19T11:39:00.966Z,19.3
2017-10-19T11:40:03.415Z,19.2
2017-10-19T11:41:05.854Z,19.3
2017-10-19T11:42:08.670Z,19.3
2017-10-19T11:43:11.121Z,19.3
2017-10-19T11:44:13.572Z,19.3
2017-10-19T11:45:16.361Z,19.2
2017-10-19T11:46:18.809Z,19.3
2017-10-19T11:47:21.257Z,19.3
2017-10-19T11:48:23.701Z,19.2
2017-10-19T11:49:26.143Z,19.2
2017-10-19T11:50:28.594Z,19.2
2017-10-19T11:51:31.029Z,19.3
2017-10-19T11:52:33.864Z,19.4
2017-10-19T11:53:36.302Z,19.2
2017-10-19T11:54:38.747Z,19.2
2017-10-19T11:55:41.185Z,19.5
2017-10-19T11:56:43.991Z,19.5
2017-10-19T11:57:46.436Z,19.5
2017-10-19T11:58:48.876Z,19.5
2017-10-19T11:59:51.313Z,19.6
2017-10-19T12:00:53.766Z,19.5
2017-10-19T12:01:56.218Z,19.5
2017-10-19T12:02:59.019Z,19.8
2017-10-19T12:04:01.468Z,20
2017-10-19T12:05:04.266Z,20.1
2017-10-19T12:06:07.069Z,20.2
2017-10-19T12:07:09.509Z,20.3
2017-10-19T12:08:11.945Z,20.2
2017-10-19T12:09:14.390Z,20.4
2017-10-19T12:10:16.832Z,20.7
2017-10-19T12:11:19.287Z,20.9
2017-10-19T12:12:21.730Z,20.7
2017-10-19T12:13:24.175Z,20.7
2017-10-19T12:14:26.625Z,20.8
2017-10-19T12:15:29.073Z,20.7
2017-10-19T12:16:31.512Z,20.8
2017-10-19T12:17:33.979Z,20.9
2017-10-19T12:18:36.386Z,21
2017-10-19T12:19:38.835Z,20.9
2017-10-19T12:20:41.290Z,21
2017-10-19T12:21:43.738Z,21.1
2017-10-19T12:22:46.182Z,20.6
2017-10-19T12:23:48.627Z,20.6
2017-10-19T12:24:51.072Z,20.5
2017-10-19T12:25:53.897Z,20.5
2017-10-19T12:26:56.338Z,20.4
2017-10-19T12:27:58.788Z,20.5
2017-10-19T12:29:01.237Z,20.8
2017-10-19T12:30:03.685Z,21
2017-10-19T12:31:06.130Z,20.7
2017-10-19T12:32:08.942Z,20.5
2017-10-19T12:33:11.751Z,20.6
2017-10-19T12:34:14.201Z,20.7
2017-10-19T12:35:17.392Z,20.6
2017-10-19T12:36:19.833Z,20.8
2017-10-19T12:37:22.279Z,20.6
2017-10-19T12:38:24.726Z,20.9
2017-10-19T12:39:27.176Z,21.1
2017-10-19T12:40:29.982Z,21.1
2017-10-19T12:41:32.433Z,21
2017-10-19T12:42:34.879Z,20.8
2017-10-19T12:43:37.333Z,20.5
2017-10-19T12:44:39.772Z,20.3
2017-10-19T12:45:42.224Z,20.3
2017-10-19T12:46:44.666Z,20.3
2017-10-19T12:47:47.106Z,20
2017-10-19T12:48:49.559Z,20.2
2017-10-19T12:49:52.003Z,20.3
2017-10-19T12:50:54.451Z,20.2
2017-10-19T12:51:57.306Z,20.1
2017-10-19T12:52:59.752Z,20.4
2017-10-19T12:54:02.191Z,20.5
2017-10-19T12:55:04.649Z,20.5
2017-10-19T12:56:07.456Z,20.3
2017-10-19T12:57:09.899Z,20
2017-10-19T12:58:12.357Z,20.1
2017-10-19T12:59:14.790Z,20.4
2017-10-19T13:00:17.595Z,20.3
2017-10-19T13:01:20.040Z,20.1
2017-10-19T13:02:22.474Z,20.1
2017-10-19T13:03:24.957Z,20.1
2017-10-19T13:04:27.411Z,20.4
2017-10-19T13:05:29.851Z,20.5
2017-10-19T13:06:32.308Z,20.6
2017-10-19T13:07:34.754Z,20.3
2017-10-19T13:08:37.192Z,20.4
2017-10-19T13:09:39.648Z,20.4
2017-10-19T13:10:42.810Z,20.3
2017-10-19T13:11:45.245Z,20.3
2017-10-19T13:12:47.685Z,20.1
2017-10-19T13:13:50.132Z,20.2
2017-10-19T13:14:52.583Z,20.1
2017-10-19T13:15:55.024Z,20.2
2017-10-19T13:16:57.480Z,20.4
2017-10-19T13:17:59.924Z,20.4
2017-10-19T13:19:02.372Z,20.3
2017-10-19T13:20:04.821Z,20.2
2017-10-19T13:21:07.274Z,20.2
2017-10-19T13:22:09.718Z,20.3
2017-10-19T13:23:12.163Z,20.2
2017-10-19T13:24:14.597Z,20.2
2017-10-19T13:25:17.049Z,20.1
2017-10-19T13:26:19.495Z,20.2
2017-10-19T13:27:21.938Z,20.2
2017-10-19T13:28:24.374Z,20.1
2017-10-19T13:29:26.824Z,20
2017-10-19T13:30:29.259Z,20.1
2017-10-19T13:31:31.709Z,20.1
2017-10-19T13:32:34.157Z,20.1
2017-10-19T13:33:36.595Z,20
2017-10-19T13:34:39.042Z,20.1
2017-10-19T13:35:41.494Z,20
2017-10-19T13:36:43.931Z,19.8
2017-10-19T13:37:46.384Z,19.6
2017-10-19T13:38:48.822Z,19.5
2017-10-19T13:39:51.281Z,19.5
2017-10-19T13:40:53.718Z,19.6
2017-10-19T13:41:56.154Z,19.7
2017-10-19T13:42:58.600Z,19.7
2017-10-19T13:44:01.044Z,19.6
2017-10-19T13:45:03.490Z,19.7
2017-10-19T13:46:05.932Z,19.5
2017-10-19T13:47:08.374Z,19.5
2017-10-19T13:48:10.821Z,19.5
2017-10-19T13:49:13.274Z,19.5
2017-10-19T13:50:15.716Z,19.3
2017-10-19T13:51:18.161Z,19.3
2017-10-19T13:52:20.959Z,19.3
2017-10-19T13:53:23.401Z,19.2
2017-10-19T13:54:25.842Z,19.2
2017-10-19T13:55:28.288Z,19.2